Slidell, TX (76267)

2:25 AM CDT on August 31, 2015 (GMT -0500)
Haire Airport ( TX33 ) | | Change Station
CLOSE
Current Station
Personal Weather Station
Location: NW Denton County, TX
Elevation: 860 ft
Nearby Weather Stations

Elev 860 ft 33.34 °N, 97.31 °W | Updated 25 seconds ago

Clear
Clear
75.2 °F
Feels Like 78 °F
N
5.6
Wind Variable Wind from South
Gusts 6.7 mph

Today
High -- | Low -- °F
--% Chance of Precip.
Yesterday
High -- | Low -- °F
Precip. -- in
7:02 AM 7:56 PM
Waning Gibbous, 96% visible
Pressure 29.97 in
Visibility 10.0 miles
Clouds Clear
Heat Index 78 °F
Dew Point 59 °F
Humidity 57%
Rainfall 0.00 in
Snow Depth Not available.
UV 0 out of 12
Pollen 8.70 out of 12
Air Quality Not available.
Flu Activity Not available.
METAR KLUD 310655Z AUTO 19006KT 10SM CLR 25/16 A2997 RMK AO2 T02450156
Pressure 29.97 in
Visibility 10.0 miles
Clouds Clear
Heat Index 78 °F
Dew Point 59 °F
Humidity 57%
Rainfall 0.00 in
Snow Depth Not available.
UV 0 out of 12
Pollen 8.70 out of 12
Air Quality Not available.
Flu Activity Not available.
METAR KLUD 310655Z AUTO 19006KT 10SM CLR 25/16 A2997 RMK AO2 T02450156

10-Day Weather Forecast

×

Almanac

Astronomy

Aug. 31, 2015 Rise Set
Actual Time
Civil Twilight
Nautical Twilight
Astronomical Twilight
Moon
Length of Visible Light
Length of Day
Tomorrow will be .
, % of the Moon is Illuminated

Today's Extremes

State Highs State Lows

Community

WunderPhotos

Upload Photos

1,851,220 photos uploaded!

WunderBlogs® & News

Nearby

Air Quality

  Air Quality AQ Index Pollutant
Not available.

Snow Depth

Station Depth Elevation

Earthquake Activity

City Distance Mag. Time & Date
Minimum magnitude displayed is 2.5.

Coastal Water Temperatures

Place Temperature

Stations

Nearby Weather Stations

Station Location Temp. Windchill Dew Point Humidity Wind Precip. Elev Updated Type